Date,TemperatureHighF,TemperatureAvgF,TemperatureLowF,DewpointHighF,DewpointAvgF,DewpointLowF,HumidityHigh,HumidityAvg,HumidityLow,PressureMaxIn,PressureMinIn,WindSpeedMaxMPH,WindSpeedAvgMPH,GustSpeedMaxMPH,PrecipitationSumIn
2013-1-1,43.3,39.7,31.4,42.0,37.9,28.0,96,93,88,30.24,30.05,3,1,7,0.36
2013-1-2,35.3,30.4,25.4,28.0,23.8,21.0,89,77,59,30.33,30.23,2,0,5,0.00
2013-1-3,45.0,33.3,22.5,30.0,25.6,20.0,94,75,48,30.47,30.31,2,0,8,0.00
2013-1-4,48.5,34.7,24.6,33.0,27.7,23.0,96,78,46,30.56,30.43,5,0,6,0.00
2013-1-5,45.5,38.1,28.4,38.0,32.0,26.0,92,79,64,30.45,30.30,2,0,4,0.00
2013-1-6,51.7,40.5,31.5,38.0,34.8,28.0,96,82,53,30.43,30.27,4,1,11,0.00
2013-1-7,53.7,36.2,25.9,30.0,27.3,24.0,92,73,38,30.48,30.25,5,0,7,0.00
2013-1-8,59.4,46.3,29.8,46.0,36.0,27.0,89,69,48,30.32,30.19,3,0,6,0.00
2013-1-9,56.8,54.2,52.4,55.0,52.2,46.0,96,93,72,30.38,30.24,5,1,10,0.99
2013-1-10,67.7,61.8,55.4,64.0,60.1,54.0,97,94,87,30.30,29.92,9,2,17,1.04
2013-1-11,68.5,61.2,53.9,61.0,54.4,50.0,96,80,53,30.07,29.95,5,2,11,0.00
2013-1-12,71.6,68.2,63.7,67.0,65.5,62.0,97,91,83,29.98,29.76,5,2,10,0.16
2013-1-13,70.1,43.6,31.6,65.0,41.5,28.0,95,92,83,30.30,29.75,5,2,14,3.26
2013-1-14,31.4,28.7,27.0,28.0,25.0,23.0,90,86,77,30.43,30.30,5,1,12,0.00
2013-1-15,31.4,29.2,26.0,30.0,27.1,23.0,95,92,87,30.31,30.12,3,1,8,0.00
2013-1-16,33.2,31.6,29.8,31.0,29.8,28.0,95,93,90,30.23,30.10,1,0,4,0.00
2013-1-17,47.5,37.6,32.3,37.0,32.3,28.0,93,81,64,30.52,30.17,4,1,9,0.05
2013-1-18,55.4,38.4,24.9,32.0,27.9,24.0,96,70,33,30.62,30.39,2,0,4,0.00
2013-1-19,58.6,46.0,35.7,37.0,33.2,30.0,80,63,39,30.39,30.21,6,2,10,0.00
2013-1-20,60.5,46.7,33.0,37.0,33.3,29.0,92,62,36,30.31,30.19,4,0,8,0.00
2013-1-21,44.8,35.3,25.5,29.0,21.2,18.0,82,58,37,30.39,30.20,6,1,8,0.00
2013-1-22,41.2,32.3,23.8,21.0,18.6,16.0,86,59,40,30.48,30.36,5,1,6,0.00
2013-1-23,56.1,40.1,27.0,38.0,29.8,19.0,88,68,50,30.39,30.21,3,0,5,0.00
2013-1-24,43.9,39.5,35.3,40.0,25.5,20.0,93,59,45,30.47,30.25,10,2,11,0.00
2013-1-25,50.2,40.3,33.0,45.0,33.7,23.0,94,79,48,30.29,30.07,4,1,9,0.05
2013-1-26,56.1,43.2,30.6,37.0,33.0,29.0,96,71,40,30.38,30.28,2,0,5,0.00
2013-1-27,64.7,55.3,46.8,54.0,45.7,35.0,82,70,61,30.30,30.15,6,1,9,0.01
2013-1-28,73.5,63.9,58.0,62.0,57.4,54.0,92,80,65,30.20,30.08,6,2,10,0.02
2013-1-29,76.2,68.1,59.6,65.0,60.9,57.0,93,79,61,30.08,29.48,8,3,17,0.12
2013-1-30,64.4,48.4,34.8,62.0,41.8,26.0,96,78,59,30.06,29.48,12,3,21,1.44
2013-1-31,55.7,40.7,29.2,35.0,28.8,23.0,88,65,40,30.37,30.07,6,2,12,0.00
2013-2-1,39.1,29.9,22.2,22.0,13.0,9.0,66,51,31,30.59,30.35,4,1,9,0.00
2013-2-2,52.5,38.2,26.3,35.0,28.5,17.0,87,70,46,30.36,30.18,4,1,7,0.01
2013-2-3,54.7,45.1,37.1,35.0,31.2,26.0,85,61,36,30.24,30.15,8,2,14,0.00
2013-2-4,58.9,46.5,36.7,44.0,35.1,28.0,88,66,39,30.15,29.95,5,1,9,0.05
2013-2-5,64.9,50.0,38.2,50.0,43.7,37.0,97,81,49,30.09,29.96,2,0,6,0.00
2013-2-6,62.9,50.7,37.2,45.0,41.7,36.0,97,74,52,30.24,30.08,3,0,7,0.00
2013-2-7,70.5,58.6,46.1,56.0,49.4,39.0,94,72,54,30.07,29.89,5,1,8,0.08
2013-2-8,57.4,44.9,34.3,56.0,39.9,31.0,95,83,68,30.35,29.92,4,1,11,0.27
2013-2-9,51.5,42.1,29.5,41.0,33.8,28.0,94,74,56,30.36,30.09,3,1,5,0.02
2013-2-10,60.6,55.4,50.9,58.0,49.2,38.0,95,81,57,30.08,29.77,5,2,10,0.99
2013-2-11,60.2,51.0,45.4,54.0,34.7,28.0,87,55,32,30.24,29.99,4,1,11,0.00
2013-2-12,52.5,46.5,37.9,41.0,37.2,34.0,89,71,51,30.19,29.83,5,1,7,0.02
2013-2-13,44.6,41.5,38.2,42.0,38.4,36.0,94,88,78,30.06,29.81,3,1,8,0.05
2013-2-14,62.4,47.8,35.2,42.0,37.7,34.0,95,71,40,30.11,30.03,6,1,8,0.01
2013-2-15,55.4,45.6,35.2,40.0,33.0,27.0,91,64,35,30.23,30.08,6,1,10,0.00
2013-2-16,40.8,34.6,28.9,27.0,21.0,17.0,72,58,44,30.31,30.23,8,1,11,0.00
2013-2-17,57.3,43.6,31.4,31.0,25.3,20.0,65,50,33,30.31,30.11,5,2,8,0.00
2013-2-18,58.1,51.4,43.2,52.0,43.2,32.0,94,75,55,30.13,29.80,9,3,19,1.37
2013-2-19,50.0,41.6,32.0,40.0,28.6,23.0,83,62,36,30.32,30.00,7,2,16,0.00
2013-2-20,37.9,33.6,30.9,26.0,19.8,15.0,75,58,44,30.40,30.23,5,1,8,0.00
2013-2-21,46.7,39.4,33.5,45.0,32.5,23.0,95,78,50,30.23,29.79,5,1,9,0.74
2013-2-22,50.9,42.3,36.9,41.0,38.2,33.0,96,86,64,30.12,29.91,4,0,5,0.00
2013-2-23,53.3,39.6,30.3,32.0,30.3,28.0,91,71,42,30.10,29.99,5,1,9,0.00
2013-2-24,61.5,44.5,28.0,34.0,30.6,26.0,94,63,33,30.15,29.94,3,1,7,0.00
2013-2-25,59.3,52.2,40.8,54.0,40.5,28.0,94,66,45,29.95,29.35,5,2,10,0.59
2013-2-26,54.0,45.0,41.2,52.0,39.1,34.0,92,80,70,29.85,29.37,7,3,17,0.00
2013-2-27,45.9,42.5,39.9,36.0,33.6,30.0,76,71,63,30.02,29.86,7,2,12,0.00
2013-2-28,43.1,39.5,35.9,31.0,28.9,27.0,76,66,57,30.14,30.02,7,2,10,0.00
2013-3-1,38.2,35.9,33.5,30.0,28.6,26.0,82,75,67,30.20,30.13,5,1,9,0.00
2013-3-2,35.9,32.7,29.1,29.0,25.9,22.0,89,76,63,30.29,30.18,4,1,12,0.00
2013-3-3,49.6,36.1,22.1,27.0,23.0,20.0,94,63,33,30.29,30.11,4,0,8,0.00
2013-3-4,69.4,54.2,35.7,48.0,33.9,24.0,69,49,27,30.11,29.80,6,2,12,0.00
2013-3-5,63.1,50.3,38.5,57.0,39.8,23.0,92,69,41,30.21,29.79,13,4,20,0.39
2013-3-6,47.5,38.9,33.3,29.0,26.1,23.0,79,61,49,30.40,30.21,5,1,11,0.00
2013-3-7,55.8,42.2,32.0,33.0,30.3,27.0,85,65,40,30.44,30.32,3,0,5,0.00
2013-3-8,67.0,49.3,32.7,35.0,28.9,22.0,86,52,20,30.43,30.21,3,0,6,0.00
2013-3-9,71.6,60.5,50.6,41.0,34.3,27.0,51,38,24,30.21,29.95,5,1,10,0.00
2013-3-10,65.2,58.3,52.3,58.0,50.8,42.0,95,78,45,29.98,29.77,10,3,16,1.19
2013-3-11,50.5,42.5,34.7,45.0,35.2,32.0,90,76,62,30.07,29.87,8,2,12,0.00
2013-3-12,57.1,41.6,29.3,35.0,30.0,26.0,96,68,32,30.26,30.07,4,1,8,0.00
2013-3-13,51.9,44.3,34.8,31.0,26.8,24.0,77,52,37,30.45,30.25,7,1,11,0.00
2013-3-14,66.3,46.6,29.2,37.0,30.1,25.0,88,58,28,30.47,30.21,6,1,9,0.00
2013-3-15,78.2,61.9,46.0,54.0,45.5,36.0,76,56,42,30.20,29.92,6,2,9,0.00
2013-3-16,77.5,66.9,58.0,57.0,53.4,48.0,79,63,48,29.95,29.84,8,2,12,0.00
2013-3-17,71.9,62.5,52.5,57.0,52.7,49.0,89,72,57,29.93,29.71,3,1,7,0.06
2013-3-18,67.4,56.3,43.0,62.0,52.2,41.0,95,86,76,30.07,29.69,6,1,10,0.72
2013-3-19,60.3,48.0,35.1,40.0,31.4,20.0,97,59,23,30.23,30.07,4,1,8,0.00
2013-3-20,55.4,46.6,34.8,36.0,26.8,11.0,78,49,25,30.27,30.12,11,1,14,0.00
2013-3-21,50.0,39.9,29.4,33.0,19.6,13.0,89,47,24,30.16,29.98,4,1,7,0.02
2013-3-22,47.7,42.3,34.3,44.0,40.0,32.0,94,91,86,30.03,29.91,4,1,7,0.46
2013-3-23,55.1,49.8,45.8,50.0,46.6,44.0,95,89,81,29.94,29.70,8,1,10,0.44
2013-3-24,51.1,45.8,37.0,50.0,40.4,27.0,97,82,64,30.00,29.56,13,4,23,0.06
2013-3-25,40.6,36.9,33.3,27.0,24.6,22.0,69,62,54,30.29,30.00,10,4,16,0.00
2013-3-26,48.1,38.5,31.5,29.0,26.0,23.0,81,62,43,30.41,30.29,4,1,10,0.00
2013-3-27,59.8,43.1,27.4,34.0,29.1,25.0,90,62,33,30.46,30.33,4,1,7,0.00
2013-3-28,71.2,53.4,34.8,39.0,34.7,31.0,88,55,27,30.39,30.25,3,0,5,0.00
2013-3-29,64.2,55.3,49.7,53.0,45.2,36.0,93,71,39,30.29,30.18,4,1,11,0.17
2013-3-30,59.0,54.5,50.5,57.0,52.8,49.0,97,94,91,30.20,29.96,3,0,4,0.38
2013-3-31,66.1,57.4,48.5,59.0,54.8,48.0,97,91,76,30.00,29.90,4,0,9,0.03
2013-4-1,70.7,55.5,42.2,51.0,45.4,41.0,98,73,42,30.15,29.96,3,0,9,0.00
2013-4-2,53.2,46.8,40.1,40.0,33.8,28.0,91,62,44,30.29,30.13,6,2,9,0.12
2013-4-3,49.7,45.9,41.0,37.0,32.0,25.0,82,60,42,30.26,30.15,9,2,9,0.04
2013-4-4,49.1,44.7,41.2,46.0,41.7,31.0,96,90,50,30.15,30.01,4,1,6,0.39
2013-4-5,71.4,54.8,43.3,47.0,41.1,34.0,97,67,28,30.20,30.08,4,0,6,0.00
2013-4-6,77.7,60.4,43.1,44.0,41.5,37.0,91,56,24,30.13,29.95,5,1,10,0.00
2013-4-7,73.0,64.5,58.5,57.0,52.5,44.0,78,66,50,30.06,29.94,5,1,8,0.00
2013-4-8,81.7,68.6,61.3,60.0,57.2,52.0,83,68,45,30.02,29.88,5,1,9,0.00
2013-4-9,84.3,73.9,65.4,68.0,64.3,59.0,87,73,56,30.01,29.88,3,0,6,0.00
2013-4-10,85.6,77.2,71.1,68.0,65.9,64.0,84,69,51,29.97,29.70,7,2,13,0.01
2013-4-11,73.3,52.7,44.1,67.0,50.8,42.0,96,93,78,29.84,29.69,5,1,9,3.43
2013-4-12,68.8,54.0,38.4,48.0,43.6,37.0,97,72,43,30.03,29.84,7,1,11,0.01
2013-4-13,79.5,60.9,44.5,48.0,43.4,39.0,90,57,27,30.14,29.95,2,0,6,0.00
2013-4-14,72.7,62.5,53.3,57.0,51.6,46.0,83,68,54,29.95,29.77,9,1,10,0.00
2013-4-15,85.2,70.6,55.3,65.0,60.1,53.0,94,71,46,29.95,29.84,3,1,7,0.00
2013-4-16,88.6,76.7,68.8,72.0,69.2,63.0,90,78,57,30.06,29.94,4,1,8,0.00
2013-4-17,88.0,77.8,68.5,72.0,68.8,67.0,94,75,51,30.09,29.87,3,1,7,0.00
2013-4-18,80.9,70.4,46.5,68.0,62.0,44.0,94,76,54,29.88,29.62,8,2,20,2.13
2013-4-19,57.3,48.1,44.1,44.0,35.4,32.0,91,63,43,30.18,29.86,9,2,16,0.01
2013-4-20,70.6,54.7,38.2,42.0,38.0,33.0,95,59,29,30.30,30.18,3,0,7,0.00
2013-4-21,72.5,59.1,46.0,42.0,38.6,35.0,76,50,26,30.37,30.20,4,0,7,0.00
2013-4-22,78.3,62.2,44.4,51.0,46.4,40.0,90,60,35,30.23,30.04,3,1,6,0.00
2013-4-23,76.3,66.6,58.2,62.0,58.4,51.0,89,76,59,30.08,29.92,4,1,7,0.00
2013-4-24,69.1,51.0,41.9,64.0,45.7,40.0,95,83,55,30.33,29.89,4,1,10,1.18
2013-4-25,73.5,53.8,36.2,44.0,39.6,35.0,97,65,27,30.43,30.31,3,0,5,0.00
2013-4-26,70.9,56.8,48.1,54.0,46.2,41.0,86,69,38,30.44,30.23,3,0,8,0.12
2013-4-27,75.8,63.3,54.1,67.0,58.9,50.0,95,85,74,30.25,29.89,4,0,7,0.15
2013-4-28,68.3,61.4,52.5,59.0,55.2,51.0,93,81,63,30.00,29.95,4,0,6,0.00
2013-4-29,85.1,65.5,47.0,60.0,54.0,46.0,97,71,39,30.04,29.90,2,0,4,0.00
2013-4-30,87.2,70.9,55.3,61.0,55.7,51.0,87,62,36,29.99,29.91,2,0,4,0.00
2013-5-1,80.1,70.2,61.5,67.0,61.1,55.0,85,73,60,30.07,29.95,3,0,5,0.01
2013-5-2,68.4,64.7,62.8,63.0,61.0,59.0,96,88,78,30.13,30.02,1,0,2,0.80
2013-5-3,63.5,48.9,38.7,62.0,47.2,36.0,96,94,86,30.04,29.91,7,1,9,2.10
2013-5-4,58.7,45.7,34.7,46.0,40.2,34.0,97,83,54,30.01,29.92,4,0,7,0.09
2013-5-5,61.6,51.7,45.0,50.0,46.2,44.0,96,83,57,29.97,29.90,7,1,15,0.60
2013-5-6,64.6,58.4,53.2,57.0,54.2,50.0,94,86,74,29.98,29.89,4,1,8,0.02
2013-5-7,78.0,64.4,50.4,60.0,56.1,49.0,97,77,48,30.04,29.95,3,0,4,0.00
2013-5-8,84.3,69.1,53.4,62.0,57.7,52.0,97,71,43,30.10,30.02,4,0,6,0.00
2013-5-9,84.7,71.6,59.9,66.0,61.4,57.0,91,72,48,30.09,29.98,3,0,11,0.00
2013-5-10,78.7,68.2,63.7,70.0,65.0,62.0,96,89,70,29.98,29.88,2,0,8,1.19
2013-5-11,75.7,66.7,59.8,65.0,58.0,52.0,95,75,45,30.09,29.95,3,0,6,0.00
2013-5-12,70.6,60.5,49.2,56.0,40.0,34.0,80,50,28,30.25,30.10,8,1,10,0.00
2013-5-13,80.1,62.9,44.8,53.0,46.9,41.0,91,60,34,30.30,30.15,2,0,5,0.00
2013-5-14,89.3,74.0,59.5,63.0,56.2,51.0,78,56,33,30.16,30.04,4,1,10,0.00
2013-5-15,87.8,75.7,64.6,61.0,56.5,51.0,72,53,35,30.14,29.97,3,1,7,0.00
2013-5-16,78.6,71.2,64.9,66.0,62.4,59.0,93,75,56,30.02,29.92,2,0,4,0.02
2013-5-17,82.5,71.7,66.1,71.0,66.4,63.0,95,84,63,29.96,29.90,3,0,7,0.18
2013-5-18,87.6,76.3,65.8,76.0,71.3,64.0,96,85,66,30.01,29.92,2,0,5,0.00
2013-5-19,90.9,80.7,72.0,74.0,70.2,67.0,92,72,46,29.99,29.88,3,0,7,0.00
2013-5-20,91.0,81.2,72.7,74.0,71.3,70.0,91,73,55,29.97,29.84,3,1,7,0.00
2013-5-21,77.6,70.2,64.2,72.0,67.6,63.0,97,91,74,30.00,29.79,5,0,10,4.22
2013-5-22,82.2,70.8,63.1,67.0,64.1,62.0,97,81,54,29.92,29.78,3,1,10,0.06
2013-5-23,83.5,74.2,62.8,66.0,62.4,58.0,94,68,49,30.14,29.92,4,1,8,0.00
2013-5-24,78.3,67.1,56.9,59.0,53.1,50.0,83,63,38,30.32,30.14,6,1,7,0.00
2013-5-25,85.0,68.3,52.0,60.0,54.5,49.0,91,64,40,30.33,30.17,1,0,4,0.00
2013-5-26,89.1,74.0,57.5,63.0,58.3,55.0,92,62,34,30.22,30.09,3,0,6,0.00
2013-5-27,89.2,76.8,65.1,71.0,63.5,59.0,81,65,42,30.12,29.98,3,0,6,0.00
2013-5-28,92.0,79.9,71.1,70.0,65.2,60.0,83,63,37,30.06,29.97,2,0,6,0.00
2013-5-29,91.0,79.3,65.8,71.0,65.6,59.0,82,64,39,30.05,29.93,4,1,7,0.00
2013-5-30,87.7,77.9,73.0,73.0,69.7,67.0,88,76,59,30.04,29.92,5,0,10,0.00
2013-5-31,87.3,77.7,67.1,76.0,72.1,66.0,96,83,66,30.01,29.85,2,0,5,0.78
2013-6-1,84.2,73.5,66.9,74.0,70.0,65.0,95,89,70,30.00,29.81,8,0,15,0.40
2013-6-2,81.9,72.9,67.1,69.0,66.2,61.0,95,80,58,29.99,29.92,4,0,7,0.00
2013-6-3,84.5,71.6,60.7,66.0,62.1,59.0,96,74,47,30.04,29.93,2,0,5,0.00
2013-6-4,88.3,75.4,61.8,67.0,63.6,59.0,91,69,46,30.03,29.92,2,0,4,0.00
2013-6-5,89.9,78.2,68.4,74.0,69.4,64.0,93,75,56,29.96,29.80,2,0,9,0.11
2013-6-6,84.7,75.9,68.2,70.0,67.7,66.0,96,77,58,29.86,29.76,4,0,7,0.00
2013-6-7,84.1,74.5,66.1,67.0,61.4,55.0,80,65,39,29.91,29.79,6,0,8,0.00
2013-6-8,88.0,75.2,59.6,64.0,58.9,56.0,94,60,35,30.01,29.90,2,0,4,0.00
2013-6-9,90.7,76.9,68.2,72.0,67.4,60.0,94,73,52,30.00,29.81,2,0,6,0.00
2013-6-10,95.0,81.5,69.0,73.0,68.9,65.0,96,69,38,29.95,29.88,7,1,9,0.01
2013-6-11,99.2,86.0,73.5,75.0,72.0,69.0,89,65,39,30.04,29.94,5,1,7,0.00
2013-6-12,97.7,86.3,73.1,78.0,74.5,71.0,94,70,47,30.06,29.91,3,0,9,0.00
2013-6-13,95.4,84.8,74.3,76.0,71.9,66.0,82,66,43,29.96,29.88,5,1,11,0.00
2013-6-14,89.2,78.1,66.4,67.0,62.6,58.0,93,62,38,30.06,29.95,4,0,6,0.00
2013-6-15,93.2,79.5,64.5,68.0,65.0,62.0,92,64,40,30.08,29.97,2,0,4,0.00
2013-6-16,91.3,79.9,70.8,74.0,69.9,67.0,88,73,53,30.06,29.95,2,0,4,0.00
2013-6-17,84.8,76.3,70.8,75.0,71.7,69.0,96,85,69,30.00,29.85,2,0,10,0.65
2013-6-18,86.5,75.5,68.8,73.0,69.6,68.0,97,83,58,29.99,29.85,2,0,6,0.24
2013-6-19,93.3,77.1,67.4,76.0,69.1,63.0,97,79,44,30.07,29.96,3,0,10,0.71
2013-6-20,94.1,81.1,67.7,73.0,69.6,67.0,97,71,42,30.14,30.05,1,0,4,0.00
2013-6-21,94.1,83.1,71.3,75.0,71.0,68.0,89,68,47,30.18,30.08,2,0,4,0.00
2013-6-22,94.9,83.0,71.2,74.0,70.5,68.0,89,68,46,30.15,30.02,2,0,5,0.00
2013-6-23,94.8,82.8,71.9,73.0,69.7,67.0,84,66,44,30.11,30.01,3,0,6,0.00
2013-6-24,96.7,84.4,73.7,76.0,73.3,70.0,91,71,48,30.14,30.01,2,0,5,0.00
2013-6-25,94.9,84.1,74.3,76.0,72.8,70.0,91,71,45,30.09,29.94,2,0,7,0.00
2013-6-26,95.7,85.5,75.2,76.0,72.4,70.0,89,67,45,30.01,29.86,4,1,7,0.00
2013-6-27,98.4,85.7,75.6,81.0,75.2,70.0,86,72,51,29.93,29.82,6,1,10,0.02
2013-6-28,93.1,80.5,71.8,77.0,71.9,69.0,95,77,48,29.92,29.72,5,0,10,0.36
2013-6-29,90.7,81.0,68.1,69.0,63.9,59.0,90,58,36,29.77,29.69,5,1,11,0.00
2013-6-30,82.3,74.0,67.0,67.0,64.0,61.0,84,71,55,29.84,29.72,6,0,9,0.00
2013-7-1,82.8,72.8,66.8,71.0,64.9,61.0,92,77,58,29.95,29.83,4,1,9,0.08
2013-7-2,85.0,73.9,63.7,66.0,62.8,61.0,92,70,47,30.05,29.93,4,0,6,0.01
2013-7-3,88.2,74.6,62.6,67.0,64.2,61.0,95,72,45,30.11,30.02,2,0,5,0.00
2013-7-4,91.1,77.3,64.5,72.0,67.9,63.0,95,74,48,30.06,29.95,2,0,7,0.00
2013-7-5,90.0,75.6,65.9,73.0,68.9,64.0,96,81,54,30.08,29.98,2,0,8,0.36
2013-7-6,91.8,77.3,66.2,73.0,69.7,64.0,95,79,49,30.08,29.98,2,0,4,0.01
2013-7-7,92.8,80.9,70.8,75.0,72.3,69.0,95,76,54,30.11,30.03,2,0,3,0.00
2013-7-8,94.6,81.0,71.6,77.0,73.6,70.0,95,79,52,30.16,30.07,1,0,4,0.00
2013-7-9,96.8,86.0,75.7,77.0,74.0,72.0,91,69,45,30.14,30.00,2,0,6,0.00
2013-7-10,98.4,86.9,77.5,78.0,74.9,72.0,85,69,44,30.06,29.88,3,0,9,0.00
2013-7-11,97.6,84.8,76.3,77.0,71.9,65.0,86,66,46,29.97,29.89,2,0,5,0.00
2013-7-12,91.0,79.1,67.1,68.0,64.0,61.0,81,61,42,30.04,29.95,6,1,8,0.00
2013-7-13,90.4,77.6,64.4,65.0,62.1,60.0,87,61,40,30.05,29.95,4,0,8,0.00
2013-7-14,92.8,78.2,69.0,73.0,68.9,63.0,88,74,51,30.08,29.98,4,1,6,0.00
2013-7-15,90.8,79.8,73.0,77.0,73.2,71.0,93,81,58,30.19,30.08,4,0,5,0.06
2013-7-16,95.1,83.6,73.1,76.0,72.8,70.0,91,72,48,30.27,30.19,2,0,3,0.00
2013-7-17,98.3,85.6,72.9,76.0,72.8,71.0,93,68,44,30.31,30.15,3,0,4,0.00
2013-7-18,92.6,79.0,72.0,78.0,74.1,69.0,96,85,60,30.19,30.05,2,0,7,0.53
2013-7-19,93.0,80.5,70.7,77.0,72.8,70.0,97,79,54,30.10,29.95,2,0,4,0.00
2013-7-20,96.8,83.5,73.7,76.0,73.6,71.0,92,74,50,29.99,29.85,2,0,6,0.00
2013-7-21,94.2,84.2,74.8,77.0,73.2,71.0,92,71,47,29.98,29.88,3,0,10,0.00
2013-7-22,87.3,79.0,71.5,77.0,73.4,69.0,96,83,63,29.98,29.87,4,0,9,1.74
2013-7-23,91.5,79.0,70.2,77.0,74.1,69.0,96,86,63,30.00,29.84,5,1,8,0.48
2013-7-24,86.4,80.5,74.6,76.0,73.6,69.0,93,80,66,29.97,29.86,2,0,5,0.00
2013-7-25,86.2,75.9,66.3,68.0,64.3,62.0,88,69,47,30.08,29.97,5,0,7,0.00
2013-7-26,84.0,73.6,63.2,68.0,64.8,61.0,95,75,52,30.09,29.97,1,0,4,0.00
2013-7-27,89.2,77.4,68.4,71.0,68.2,65.0,93,75,51,30.02,29.90,3,0,5,0.04
2013-7-28,85.2,74.5,68.2,68.0,64.3,62.0,83,71,54,30.07,29.96,3,0,5,0.00
2013-7-29,94.1,78.8,66.8,71.0,66.2,62.0,86,67,45,30.16,30.07,1,0,3,0.00
2013-7-30,85.3,78.8,73.6,75.0,71.0,67.0,91,77,66,30.14,30.02,2,0,4,0.09
2013-7-31,89.5,79.6,74.3,78.0,73.7,71.0,94,82,66,30.07,29.93,3,0,8,0.25
2013-8-1,90.4,80.0,71.8,76.0,71.8,69.0,96,78,53,30.05,29.97,3,0,6,0.00
2013-8-2,93.1,79.5,67.2,72.0,69.1,66.0,96,73,47,30.04,29.96,2,0,6,0.00
2013-8-3,86.9,78.4,73.6,76.0,72.7,69.0,92,82,70,30.08,29.94,3,0,8,0.00
2013-8-4,90.5,80.1,70.7,75.0,72.4,70.0,97,79,58,30.12,30.04,3,0,5,0.00
2013-8-5,85.4,77.3,72.4,77.0,72.8,68.0,95,86,71,30.06,29.92,1,0,5,0.58
2013-8-6,88.8,80.1,74.3,79.0,75.4,73.0,95,86,70,29.97,29.88,3,0,4,0.00
2013-8-7,96.5,84.0,75.1,79.0,76.1,73.0,92,78,52,29.96,29.86,2,0,7,0.00
2013-8-8,97.3,86.2,77.5,79.0,76.8,75.0,93,75,52,29.96,29.86,2,0,5,0.00
2013-8-9,99.2,86.7,76.0,79.0,75.1,71.0,92,71,42,30.02,29.93,4,0,6,0.00
2013-8-10,94.8,82.2,75.5,76.0,74.4,73.0,93,78,51,30.14,30.01,2,0,10,0.00
2013-8-11,90.5,78.8,74.4,80.0,75.4,72.0,95,89,69,30.14,30.05,9,0,10,0.56
2013-8-12,93.3,80.8,71.7,79.0,74.8,70.0,95,83,61,30.07,29.94,4,0,10,0.08
2013-8-13,87.5,78.0,71.4,75.0,72.1,68.0,96,83,61,30.02,29.93,2,0,4,0.00
2013-8-14,81.7,73.5,66.1,68.0,62.1,57.0,86,69,49,30.09,29.98,4,1,6,0.00
2013-8-15,83.6,70.1,57.6,61.0,57.8,55.0,91,67,39,30.10,30.02,2,0,5,0.00
2013-8-16,84.8,72.4,61.3,70.0,64.7,58.0,91,78,55,30.07,30.00,2,0,4,0.00
2013-8-17,83.7,73.5,66.3,70.0,67.4,65.0,94,82,61,30.10,30.02,2,0,4,0.00
2013-8-18,85.6,74.1,66.3,71.0,68.0,65.0,96,82,57,30.14,30.04,1,0,3,0.00
2013-8-19,91.4,77.2,66.4,72.0,69.0,65.0,96,78,49,30.11,30.01,2,0,4,0.00
2013-8-20,91.0,78.5,68.8,76.0,71.4,67.0,97,80,55,30.10,30.02,3,0,4,0.11
2013-8-21,93.5,81.6,71.6,77.0,72.5,70.0,95,76,47,30.15,30.05,2,0,5,0.00
2013-8-22,92.4,81.4,73.5,76.0,73.5,71.0,95,78,56,30.14,30.02,1,0,5,0.00
2013-8-23,94.6,82.2,70.3,76.0,71.9,69.0,96,73,45,30.09,29.99,3,0,4,0.06
2013-8-24,95.4,83.5,72.8,77.0,73.4,71.0,94,73,50,30.15,30.04,4,0,5,0.00
2013-8-25,92.3,80.8,74.6,76.0,73.1,71.0,90,78,56,30.27,30.14,2,0,4,0.00
2013-8-26,92.6,80.5,70.5,71.0,69.5,66.0,93,71,46,30.27,30.13,2,0,3,0.00
2013-8-27,93.1,79.3,67.3,71.0,66.9,64.0,90,68,45,30.17,30.05,3,0,6,0.00
2013-8-28,94.9,81.0,67.9,69.0,67.2,65.0,91,65,41,30.11,30.02,2,0,5,0.00
2013-8-29,97.1,82.9,70.3,73.0,69.6,66.0,88,66,43,30.09,29.98,5,0,6,0.00
2013-8-30,98.1,85.0,72.7,74.0,71.8,70.0,92,67,43,30.03,29.89,3,0,6,0.00
2013-8-31,100.1,86.3,74.8,75.0,72.0,70.0,86,64,42,29.94,29.82,4,1,7,0.01
2013-9-1,96.3,82.8,76.4,76.0,72.8,71.0,83,72,50,29.91,29.81,5,0,7,0.00
2013-9-2,92.5,82.6,76.8,76.0,73.9,72.0,89,76,55,29.95,29.83,4,0,8,0.00
2013-9-3,91.3,79.4,69.5,73.0,66.7,61.0,94,68,41,30.03,29.91,4,0,6,0.00
2013-9-4,90.0,76.6,64.0,68.0,65.0,62.0,94,70,46,30.13,30.02,4,0,5,0.00
2013-9-5,93.3,78.0,64.1,69.0,65.3,62.0,92,68,39,30.17,30.09,2,0,5,0.00
2013-9-6,93.9,78.6,67.2,72.0,65.8,62.0,90,68,37,30.16,30.04,2,0,5,0.06
2013-9-7,98.2,81.6,66.7,70.0,66.9,64.0,92,65,35,30.09,29.96,2,0,5,0.00
2013-9-8,100.1,83.8,70.2,71.0,68.7,66.0,89,64,35,30.00,29.89,2,0,5,0.00
2013-9-9,96.6,82.9,74.7,78.0,71.5,69.0,91,70,46,30.06,29.95,1,0,4,0.12
2013-9-10,96.8,81.5,74.5,77.0,71.8,70.0,91,74,44,30.14,30.03,1,0,6,0.24
2013-9-11,94.9,81.6,73.5,75.0,72.3,70.0,94,75,47,30.17,30.06,1,0,4,0.00
2013-9-12,94.4,80.9,71.8,73.0,70.5,68.0,89,72,47,30.07,29.93,3,0,7,0.00
2013-9-13,85.6,75.2,65.9,71.0,61.2,54.0,86,64,37,30.03,29.95,3,1,6,0.01
2013-9-14,79.7,67.4,54.8,56.0,52.3,48.0,89,62,36,30.11,30.03,2,0,6,0.00
2013-9-15,91.1,69.9,52.4,59.0,54.9,51.0,95,64,29,30.12,30.05,2,0,5,0.00
2013-9-16,91.8,74.6,59.9,68.0,60.4,52.0,91,66,27,30.16,30.09,2,0,5,0.00
2013-9-17,94.2,78.8,66.3,68.0,66.0,63.0,94,68,37,30.16,30.03,2,0,3,0.00
2013-9-18,88.0,78.7,71.3,74.0,70.2,66.0,90,76,59,30.12,30.01,3,0,3,0.01
2013-9-19,94.3,80.3,69.7,72.0,69.1,67.0,94,71,44,30.11,29.96,4,0,5,0.00
2013-9-20,77.3,73.5,69.4,74.0,69.9,67.0,97,89,71,29.99,29.84,1,0,6,2.82
2013-9-21,79.3,69.1,59.4,69.0,60.2,53.0,97,76,43,29.93,29.82,3,0,7,0.17
2013-9-22,79.8,65.8,53.4,57.0,54.6,52.0,95,70,42,29.97,29.88,2,0,6,0.00
2013-9-23,86.1,69.5,55.0,62.0,58.4,53.0,92,70,43,29.97,29.88,2,0,4,0.00
2013-9-24,78.3,70.9,65.2,72.0,67.7,61.0,96,90,81,29.92,29.81,1,0,2,0.12
2013-9-25,85.2,74.5,68.2,71.0,67.9,64.0,97,81,57,29.85,29.78,3,0,6,0.00
2013-9-26,89.0,74.5,64.5,72.0,66.9,63.0,97,79,49,30.00,29.84,2,0,3,0.00
2013-9-27,88.3,73.4,62.5,69.0,64.7,61.0,97,76,46,30.09,30.00,2,0,3,0.00
2013-9-28,86.4,73.0,63.6,64.0,61.6,60.0,89,69,45,30.14,30.02,4,0,5,0.00
2013-9-29,69.5,67.1,65.2,66.0,62.8,60.0,96,86,73,30.06,29.97,1,0,3,0.22
2013-9-30,76.7,68.9,65.5,70.0,66.8,64.0,97,93,80,30.00,29.93,1,0,2,0.06
2013-10-1,86.4,74.0,66.8,74.0,69.0,65.0,96,85,63,30.08,29.97,2,0,4,0.03
2013-10-2,86.1,75.5,69.4,71.0,68.2,66.0,94,79,58,30.11,30.03,2,0,3,0.00
2013-10-3,89.0,76.2,65.5,73.0,68.9,64.0,96,79,55,30.07,29.96,3,0,6,0.00
2013-10-4,86.3,75.7,69.4,74.0,71.1,68.0,95,86,66,30.07,29.98,1,0,5,0.00
2013-10-5,89.5,78.9,71.5,74.0,71.9,70.0,95,80,59,30.03,29.88,2,0,6,0.02
2013-10-6,74.3,62.9,55.6,72.0,53.8,47.0,94,74,48,30.01,29.89,4,1,9,0.81
2013-10-7,70.7,57.8,47.4,53.0,49.5,46.0,95,76,52,30.13,29.98,3,0,10,0.00
2013-10-8,75.3,60.8,48.5,56.0,51.5,47.0,95,74,46,30.18,30.07,3,0,6,0.00
2013-10-9,79.5,65.6,55.1,66.0,59.8,52.0,95,82,64,30.16,30.08,3,0,4,0.00
2013-10-10,83.5,67.8,58.8,67.0,61.5,58.0,97,82,48,30.17,30.03,1,0,4,0.00
2013-10-11,84.7,68.5,56.7,66.0,60.6,56.0,97,78,47,30.07,29.97,1,0,4,0.00
2013-10-12,76.3,66.2,59.4,70.0,63.6,58.0,96,91,75,30.14,30.00,1,0,10,0.17
2013-10-13,80.4,68.9,62.0,67.0,62.9,56.0,97,82,60,30.28,30.14,2,0,4,0.00
2013-10-14,83.6,68.8,56.8,65.0,59.7,52.0,85,74,51,30.24,30.07,2,0,3,0.00
2013-10-15,73.6,69.6,67.0,67.0,64.7,63.0,96,84,75,30.06,29.96,3,0,5,0.71
2013-10-16,67.3,61.1,56.8,67.0,59.2,55.0,97,93,85,30.04,29.95,2,0,6,0.79
2013-10-17,68.4,58.8,49.6,57.0,53.2,48.0,95,83,54,30.05,29.98,4,0,6,0.02
2013-10-18,71.6,57.3,45.0,54.0,49.9,44.0,97,79,48,30.11,29.97,1,0,3,0.00
2013-10-19,59.5,53.1,42.4,55.0,48.0,41.0,94,83,61,30.10,29.95,4,0,7,0.03
2013-10-20,69.3,51.2,39.7,47.0,43.2,38.0,97,77,42,30.15,30.02,3,0,4,0.00
2013-10-21,74.6,56.9,42.6,54.0,47.9,41.0,96,75,43,30.11,30.00,2,0,9,0.00
2013-10-22,67.9,57.5,52.4,54.0,47.9,41.0,94,73,38,30.10,29.92,3,0,7,0.02
2013-10-23,60.2,51.3,43.5,48.0,41.2,38.0,92,70,45,30.19,29.97,4,0,9,0.00
2013-10-24,64.7,51.2,41.6,48.0,41.7,35.0,94,72,48,30.41,30.14,5,0,9,0.00
2013-10-25,55.0,43.3,34.2,36.0,32.4,29.0,89,68,39,30.56,30.36,3,0,5,0.00
2013-10-26,66.3,50.9,36.4,50.0,40.7,33.0,88,70,46,30.36,30.13,5,0,6,0.00
2013-10-27,67.9,59.3,53.3,58.0,54.7,49.0,93,85,70,30.13,30.03,1,0,3,0.00
2013-10-28,70.6,61.5,56.3,59.0,56.7,55.0,95,85,63,30.24,30.09,1,0,3,0.00
2013-10-29,75.3,64.5,53.9,68.0,60.6,53.0,97,87,74,30.26,30.13,3,0,4,0.00
2013-10-30,75.3,68.2,60.4,67.0,63.5,59.0,96,85,73,30.20,29.98,3,0,5,0.00
2013-10-31,70.4,67.5,62.4,68.0,64.8,53.0,96,91,68,29.96,29.59,6,1,10,2.03
2013-11-1,72.5,59.9,49.4,53.0,50.4,46.0,97,74,43,29.92,29.78,3,0,9,0.01
2013-11-2,60.2,52.7,43.1,51.0,44.5,40.0,93,75,54,30.23,29.91,7,1,11,0.00
2013-11-3,61.4,47.1,36.6,44.0,39.9,35.0,97,79,47,30.34,30.18,2,0,4,0.00
2013-11-4,66.5,54.8,43.8,49.0,44.7,39.0,88,70,47,30.32,30.21,3,0,7,0.00
2013-11-5,71.8,61.8,54.1,54.0,50.0,45.0,78,66,54,30.32,30.16,3,1,7,0.00
2013-11-6,62.0,57.5,45.9,60.0,52.3,42.0,96,83,71,30.27,30.05,6,1,9,0.26
2013-11-7,56.8,45.9,38.7,42.0,37.2,34.0,93,74,44,30.44,30.28,2,0,8,0.00
2013-11-8,63.0,47.1,33.5,43.0,37.6,32.0,97,73,37,30.43,30.24,1,0,2,0.00
2013-11-9,60.9,50.9,41.9,45.0,41.9,38.0,88,73,48,30.32,30.23,2,0,4,0.00
2013-11-10,67.4,53.1,42.9,50.0,44.2,40.0,96,74,45,30.38,30.29,3,0,7,0.00
2013-11-11,70.7,53.1,38.2,49.0,43.2,37.0,95,73,40,30.34,30.19,3,0,4,0.00
2013-11-12,54.7,41.2,31.1,49.0,31.8,23.0,91,70,48,30.70,30.24,6,1,9,0.00
2013-11-13,49.5,35.3,26.9,27.0,23.9,21.0,89,66,35,30.75,30.49,3,0,4,0.00
2013-11-14,57.0,40.8,25.9,28.0,24.6,22.0,90,58,26,30.48,30.19,2,0,5,0.00
2013-11-15,60.0,50.4,41.6,53.0,44.6,28.0,94,81,58,30.20,30.05,3,0,4,0.05
2013-11-16,68.6,61.4,53.0,65.0,58.8,51.0,96,91,85,30.07,29.89,4,1,7,0.00
2013-11-17,76.4,69.7,60.8,71.0,64.1,40.0,96,84,41,30.00,29.73,5,1,8,0.71
2013-11-18,64.7,54.6,44.1,41.0,35.9,30.0,76,51,34,30.27,30.00,3,0,6,0.00
2013-11-19,53.2,44.7,34.9,32.0,29.6,26.0,84,57,36,30.34,30.20,3,0,5,0.00
2013-11-20,63.7,47.9,32.3,43.0,36.4,29.0,89,67,41,30.22,30.10,5,0,5,0.00
2013-11-21,68.1,58.4,51.4,60.0,52.6,43.0,95,81,67,30.23,30.13,4,1,7,0.55
2013-11-22,60.0,53.4,43.7,59.0,51.5,41.0,97,93,88,30.41,30.18,4,0,8,0.33
2013-11-23,46.5,41.1,30.3,41.0,32.0,19.0,92,72,44,30.60,30.38,6,1,12,0.00
2013-11-24,37.8,30.3,23.2,20.0,17.3,16.0,73,60,42,30.69,30.47,6,1,10,0.00
2013-11-25,36.2,34.9,32.4,35.0,27.3,17.0,94,76,53,30.48,30.17,3,0,4,0.06
2013-11-26,41.1,37.1,35.3,37.0,33.8,27.0,95,88,70,30.17,29.98,4,0,8,0.08
2013-11-27,35.2,29.0,22.0,26.0,18.4,16.0,87,66,50,30.44,30.17,4,1,10,0.00
2013-11-28,46.5,31.9,19.9,26.0,21.2,17.0,90,68,38,30.53,30.43,3,0,6,0.00
2013-11-29,58.2,39.3,26.0,34.0,29.5,24.0,92,71,40,30.60,30.47,1,0,4,0.00
2013-11-30,58.2,43.7,27.4,34.0,30.3,26.0,93,64,35,30.48,30.25,3,0,7,0.00
2013-12-1,61.2,51.6,39.5,46.0,38.5,31.0,75,61,53,30.25,29.96,2,0,5,0.00
2013-12-2,61.0,55.0,47.7,54.0,49.5,42.0,95,82,68,29.95,29.74,2,0,3,0.00
2013-12-3,60.1,54.5,46.8,59.0,53.2,46.0,97,95,90,29.78,29.70,2,0,4,0.00
2013-12-4,75.0,67.9,59.6,65.0,62.7,59.0,96,84,69,29.84,29.70,10,2,11,0.00
2013-12-5,69.6,49.8,34.6,66.0,46.5,33.0,94,88,79,30.17,29.84,4,1,11,0.75
2013-12-6,34.6,31.4,26.2,33.0,29.8,24.0,94,93,91,30.48,30.09,6,1,10,0.88
2013-12-7,29.3,26.1,22.5,28.0,23.8,20.0,93,90,88,30.60,30.36,4,1,9,0.00
2013-12-8,34.4,32.7,29.6,33.0,31.4,28.0,96,95,93,30.39,30.11,2,0,5,0.00
2013-12-9,34.1,32.5,31.1,31.0,29.6,28.0,95,88,83,30.34,30.20,5,1,7,0.00
2013-12-10,41.1,31.1,24.7,29.0,25.4,21.0,95,80,62,30.49,30.26,4,0,6,0.01
2013-12-11,46.7,33.3,22.2,33.0,27.3,21.0,96,80,52,30.62,30.43,3,0,8,0.01
2013-12-12,45.9,31.7,21.7,25.0,19.8,15.0,85,64,33,30.67,30.44,5,0,5,0.00
2013-12-13,49.1,36.9,25.3,36.0,25.6,21.0,91,67,37,30.43,30.02,3,0,5,0.28
2013-12-14,40.9,38.8,35.9,37.0,34.1,31.0,86,83,81,30.18,29.98,6,2,10,0.54
2013-12-15,40.5,34.9,31.9,31.0,29.7,28.0,92,81,70,30.32,30.18,5,1,9,0.00
2013-12-16,58.2,44.1,31.0,40.0,35.5,29.0,93,74,51,30.27,30.16,5,2,10,0.00
2013-12-17,60.4,47.2,33.5,42.0,37.0,32.0,92,70,48,30.33,30.19,7,1,9,0.00
2013-12-18,61.3,45.0,30.0,39.0,33.2,28.0,95,67,36,30.39,30.15,4,1,7,0.00
2013-12-19,60.5,54.1,44.2,54.0,46.2,38.0,80,75,67,30.18,29.97,5,2,10,0.00
2013-12-20,68.3,64.0,59.3,65.0,60.0,54.0,94,86,79,30.00,29.83,7,2,9,0.23
2013-12-21,75.4,66.4,54.2,68.0,62.3,53.0,96,87,71,29.82,29.49,10,3,16,1.72
2013-12-22,55.9,49.4,37.7,53.0,46.6,32.0,97,90,80,30.27,29.73,9,1,10,0.02
2013-12-23,38.4,34.2,25.8,32.0,27.4,24.0,92,76,64,30.55,30.27,5,1,8,0.00
2013-12-24,36.8,29.3,24.6,26.0,19.9,16.0,93,70,45,30.66,30.47,4,0,7,0.00
2013-12-25,51.4,35.7,22.7,32.0,24.4,17.0,87,66,38,30.48,30.34,3,0,6,0.00
2013-12-26,49.5,36.4,27.3,32.0,28.5,25.0,95,76,44,30.49,30.39,3,0,6,0.00
2013-12-27,57.8,38.7,25.6,32.0,28.5,24.0,95,71,35,30.52,30.40,2,0,3,0.00
2013-12-28,47.7,40.1,32.1,41.0,35.2,29.0,94,83,66,30.39,30.01,1,0,3,0.06
2013-12-29,55.9,44.9,35.5,44.0,39.7,30.0,97,83,64,30.23,29.99,5,1,8,0.06
2013-12-30,35.3,31.8,29.3,30.0,26.4,24.0,86,80,78,30.41,30.23,7,0,8,0.00
2013-12-31,50.3,34.0,23.3,31.0,26.7,22.0,95,77,47,30.52,30.36,2,0,3,0.01
2014-1-1,55.7,41.7,26.3,44.0,33.3,24.0,95,75,46,30.35,29.98,3,1,7,0.01
2014-1-2,49.6,35.1,23.2,48.0,28.2,14.0,94,76,63,30.49,29.92,7,2,11,0.26